Aidablu — IBWX — position and weather

sailwx.info

Track history (hours):
 
Tides and Currents Weather Stations Pressure Air Temp Water Temp Dewpoint Dewpoint Depression Visibility Wind Speed Wind Dir Waves Ship Positions

Aidablu

Last reported at 2014-Aug-20 04:34 UTC. Time now 2014-Aug-20 04:50 UTC.
Position N 38°18' E 013°19'.

Length 252 m; draft 7.3 m.

Type: Ship. MMSI: 247282500.

Date/timePositionNaut miles runAvg speedWind from/ knotsBaromVisibWave heightAir tempDewpointWater temp
2014-Aug-20 04:34N 38°18' E 013°19'7 7.2
2014-Aug-20 03:33N 38°17' E 013°09'1313.0
2014-Aug-20 02:33N 38°16' E 012°53'10212.7
2014-Aug-19 18:30N 37°23' E 011°03'1212.8
2014-Aug-19 17:33N 37°15' E 010°51'1512.3
2014-Aug-19 16:22N 37°04' E 010°39'1212.0
2014-Aug-19 15:23N 36°55' E 010°30'1111.4
2014-Aug-19 14:26N 36°48' E 010°20'25 2.1
2014-Aug-19 02:33N 37°12' E 010°28'1313.2
2014-Aug-19 01:34N 37°24' E 010°21'2512.3
2014-Aug-18 23:33N 37°36' E 009°54'1413.7
2014-Aug-18 22:32N 37°40' E 009°37'1413.7
2014-Aug-18 21:33N 37°44' E 009°21'1414.0
2014-Aug-18 20:33N 37°48' E 009°04'1414.1
2014-Aug-18 19:33N 37°52' E 008°46'1413.6
2014-Aug-18 18:33N 37°56' E 008°30'1513.9
2014-Aug-18 17:28N 38°00' E 008°12'8013.5
2014-Aug-18 11:32N 38°24' E 006°34'13913.9
2014-Aug-18 01:32N 39°04' E 003°44'1313.6
2014-Aug-18 00:33N 39°10' E 003°28'45 7.6
2014-Aug-17 18:33N 39°33' E 002°38'0 0.0
2014-Aug-17 17:33N 39°33' E 002°38'0 0.0
2014-Aug-17 16:32N 39°33' E 002°38'0 0.0
2014-Aug-17 15:32N 39°33' E 002°38'0 0.0
2014-Aug-17 14:31N 39°33' E 002°38'0 0.0
2014-Aug-17 13:31N 39°33' E 002°38'0 0.0
2014-Aug-17 12:31N 39°33' E 002°38'0 0.0
2014-Aug-17 11:27N 39°33' E 002°38'0 0.0
2014-Aug-17 10:33N 39°33' E 002°38'0 0.0
2014-Aug-17 09:32N 39°33' E 002°38'0 0.0
2014-Aug-17 08:32N 39°33' E 002°38'0 0.0
2014-Aug-17 07:31N 39°33' E 002°38'0 0.0
2014-Aug-17 06:31N 39°33' E 002°38'0 0.0
2014-Aug-17 05:31N 39°33' E 002°38'0 0.0
2014-Aug-17 04:33N 39°33' E 002°38'0 0.0
2014-Aug-17 03:33N 39°33' E 002°38'0 0.0
2014-Aug-17 02:34N 39°33' E 002°38'7 7.2
2014-Aug-17 01:33N 39°27' E 002°33'1212.4
2014-Aug-17 00:33N 39°32' E 002°18'1212.5
2014-Aug-16 23:33N 39°43' E 002°14'1313.5
2014-Aug-16 22:33N 39°57' E 002°13'1313.4
2014-Aug-16 21:33N 40°10' E 002°13'1313.3
2014-Aug-16 20:33N 40°24' E 002°12'1313.4
2014-Aug-16 19:33N 40°37' E 002°12'1313.2
2014-Aug-16 18:33N 40°50' E 002°12'1413.5
2014-Aug-16 17:32N 41°04' E 002°11'1412.8
2014-Aug-16 16:28N 41°18' E 002°10'7 0.6
2014-Aug-16 03:28N 41°17' E 002°20'4 4.6
2014-Aug-16 02:33N 41°18' E 002°26'1111.1
2014-Aug-16 01:33N 41°19' E 002°40'1414.5
2014-Aug-16 00:33N 41°21' E 002°59'1514.5
2014-Aug-15 23:33N 41°22' E 003°19'1413.7
2014-Aug-15 22:33N 41°24' E 003°37'1313.4
2014-Aug-15 21:33N 41°25' E 003°55'1413.6
2014-Aug-15 20:33N 41°27' E 004°13'1313.4
2014-Aug-15 19:33N 41°28' E 004°30'1313.0
2014-Aug-15 18:33N 41°30' E 004°48'1212.2
2014-Aug-15 17:33N 41°31' E 005°04'200 4.6
2014-Aug-13 22:18N 42°59' E 009°06'1212.3
2014-Aug-13 21:21N 43°07' E 009°18'1111.5
2014-Aug-13 20:23N 43°11' E 009°32'911.4
2014-Aug-13 19:33N 43°15' E 009°44'1211.9
2014-Aug-13 18:33N 43°20' E 009°59'1312.8
2014-Aug-13 17:33N 43°29' E 010°11'7 6.5
2014-Aug-13 16:32N 43°33' E 010°18'0 0.0
2014-Aug-13 15:31N 43°33' E 010°18'0 0.0
2014-Aug-13 14:31N 43°33' E 010°18'0 0.0
2014-Aug-13 13:31N 43°33' E 010°18'0 0.0
2014-Aug-13 12:27N 43°33' E 010°18'0 0.0
2014-Aug-13 11:33N 43°33' E 010°18'0 0.0
2014-Aug-13 10:32N 43°33' E 010°18'0 0.0
2014-Aug-13 09:32N 43°33' E 010°18'0 0.0
2014-Aug-13 08:31N 43°33' E 010°18'0 0.0
2014-Aug-13 07:31N 43°33' E 010°18'0 0.0
2014-Aug-13 06:34N 43°33' E 010°18'0 0.0
2014-Aug-13 05:33N 43°33' E 010°18'5 5.2
2014-Aug-13 04:33N 43°29' E 010°13'1312.7
2014-Aug-13 03:33N 43°17' E 010°09'1412.6
2014-Aug-13 02:29N 43°03' E 010°06'3311.1
2014-Aug-12 23:30N 42°32' E 010°22'1312.8
2014-Aug-12 22:31N 42°24' E 010°35'158 6.1
2014-Aug-11 20:33N 40°52' E 013°27'1414.5
2014-Aug-11 19:33N 40°44' E 013°42'1413.9
2014-Aug-11 18:33N 40°39' E 013°59'1413.9
2014-Aug-11 17:33N 40°47' E 014°14'4 3.6
2014-Aug-11 16:33N 40°50' E 014°16'0 0.0
2014-Aug-11 15:32N 40°50' E 014°16'0 0.0
2014-Aug-11 14:29N 40°50' E 014°16'0 0.0
2014-Aug-11 13:32N 40°50' E 014°16'0 0.0
2014-Aug-11 12:31N 40°50' E 014°16'0 0.0
2014-Aug-11 11:31N 40°50' E 014°16'0 0.0
2014-Aug-11 10:33N 40°50' E 014°16'0 0.0
2014-Aug-11 08:32N 40°50' E 014°16'0 0.0
2014-Aug-11 07:33N 40°50' E 014°16'0 0.1
2014-Aug-11 05:16N 40°50' E 014°16'18 9.5
2014-Aug-11 03:21N 40°33' E 014°08'1012.2
2014-Aug-11 02:33N 40°24' E 014°05'1613.6
2014-Aug-11 01:23N 40°08' E 014°00'1113.5
2014-Aug-11 00:33N 39°57' E 013°57'1413.4
2014-Aug-10 23:31N 39°44' E 013°53'1313.5
2014-Aug-10 22:33N 39°31' E 013°50'1313.5
2014-Aug-10 21:33N 39°18' E 013°46'1313.1
2014-Aug-10 20:33N 39°05' E 013°42'1313.1
2014-Aug-10 19:33N 38°52' E 013°38'1413.5
2014-Aug-10 18:33N 38°39' E 013°34'1413.7
2014-Aug-10 17:33N 38°26' E 013°31'1313.3
2014-Aug-10 16:33N 38°13' E 013°27'6 6.2
2014-Aug-10 15:32N 38°08' E 013°22'0 0.0
2014-Aug-10 14:32N 38°08' E 013°22'0 0.0
2014-Aug-10 13:31N 38°08' E 013°22'0 0.0
2014-Aug-10 12:31N 38°08' E 013°22'0 0.0
2014-Aug-10 11:33N 38°08' E 013°22'0 0.0
2014-Aug-10 10:33N 38°08' E 013°22'0 0.0
2014-Aug-10 09:33N 38°08' E 013°22'0 0.0
2014-Aug-10 08:32N 38°08' E 013°22'0 0.0
2014-Aug-10 07:32N 38°08' E 013°22'0 0.0
2014-Aug-10 06:31N 38°08' E 013°22'4 3.7
2014-Aug-10 05:33N 38°11' E 013°24'1110.6
2014-Aug-10 04:34N 38°18' E 013°14'  
Track history (hours):
 
Tides and Currents Weather Stations Pressure Air Temp Water Temp Dewpoint Dewpoint Depression Visibility Wind Speed Wind Dir Waves Ship Positions

Aidablu

Last reported at 2014-Aug-20 04:34 UTC. Time now 2014-Aug-20 04:50 UTC.
Position N 38°18' E 013°19'.

Length 252 m; draft 7.3 m.

Type: Ship. MMSI: 247282500.

Date/timePositionNaut miles runAvg speedWind from/ knotsBaromVisibWave heightAir tempDewpointWater temp
2014-Aug-20 04:34N 38°18' E 013°19'7 7.2
2014-Aug-20 03:33N 38°17' E 013°09'1313.0
2014-Aug-20 02:33N 38°16' E 012°53'10212.7
2014-Aug-19 18:30N 37°23' E 011°03'1212.8
2014-Aug-19 17:33N 37°15' E 010°51'1512.3
2014-Aug-19 16:22N 37°04' E 010°39'1212.0
2014-Aug-19 15:23N 36°55' E 010°30'1111.4
2014-Aug-19 14:26N 36°48' E 010°20'25 2.1
2014-Aug-19 02:33N 37°12' E 010°28'1313.2
2014-Aug-19 01:34N 37°24' E 010°21'2512.3
2014-Aug-18 23:33N 37°36' E 009°54'1413.7
2014-Aug-18 22:32N 37°40' E 009°37'1413.7
2014-Aug-18 21:33N 37°44' E 009°21'1414.0
2014-Aug-18 20:33N 37°48' E 009°04'1414.1
2014-Aug-18 19:33N 37°52' E 008°46'1413.6
2014-Aug-18 18:33N 37°56' E 008°30'1513.9
2014-Aug-18 17:28N 38°00' E 008°12'8013.5
2014-Aug-18 11:32N 38°24' E 006°34'13913.9
2014-Aug-18 01:32N 39°04' E 003°44'1313.6
2014-Aug-18 00:33N 39°10' E 003°28'45 7.6
2014-Aug-17 18:33N 39°33' E 002°38'0 0.0
2014-Aug-17 17:33N 39°33' E 002°38'0 0.0
2014-Aug-17 16:32N 39°33' E 002°38'0 0.0
2014-Aug-17 15:32N 39°33' E 002°38'0 0.0
2014-Aug-17 14:31N 39°33' E 002°38'0 0.0
2014-Aug-17 13:31N 39°33' E 002°38'0 0.0
2014-Aug-17 12:31N 39°33' E 002°38'0 0.0
2014-Aug-17 11:27N 39°33' E 002°38'0 0.0
2014-Aug-17 10:33N 39°33' E 002°38'0 0.0
2014-Aug-17 09:32N 39°33' E 002°38'0 0.0
2014-Aug-17 08:32N 39°33' E 002°38'0 0.0
2014-Aug-17 07:31N 39°33' E 002°38'0 0.0
2014-Aug-17 06:31N 39°33' E 002°38'0 0.0
2014-Aug-17 05:31N 39°33' E 002°38'0 0.0
2014-Aug-17 04:33N 39°33' E 002°38'0 0.0
2014-Aug-17 03:33N 39°33' E 002°38'0 0.0
2014-Aug-17 02:34N 39°33' E 002°38'7 7.2
2014-Aug-17 01:33N 39°27' E 002°33'1212.4
2014-Aug-17 00:33N 39°32' E 002°18'1212.5
2014-Aug-16 23:33N 39°43' E 002°14'1313.5
2014-Aug-16 22:33N 39°57' E 002°13'1313.4
2014-Aug-16 21:33N 40°10' E 002°13'1313.3
2014-Aug-16 20:33N 40°24' E 002°12'1313.4
2014-Aug-16 19:33N 40°37' E 002°12'1313.2
2014-Aug-16 18:33N 40°50' E 002°12'1413.5
2014-Aug-16 17:32N 41°04' E 002°11'1412.8
2014-Aug-16 16:28N 41°18' E 002°10'7 0.6
2014-Aug-16 03:28N 41°17' E 002°20'4 4.6
2014-Aug-16 02:33N 41°18' E 002°26'1111.1
2014-Aug-16 01:33N 41°19' E 002°40'1414.5
2014-Aug-16 00:33N 41°21' E 002°59'1514.5
2014-Aug-15 23:33N 41°22' E 003°19'1413.7
2014-Aug-15 22:33N 41°24' E 003°37'1313.4
2014-Aug-15 21:33N 41°25' E 003°55'1413.6
2014-Aug-15 20:33N 41°27' E 004°13'1313.4
2014-Aug-15 19:33N 41°28' E 004°30'1313.0
2014-Aug-15 18:33N 41°30' E 004°48'1212.2
2014-Aug-15 17:33N 41°31' E 005°04'200 4.6
2014-Aug-13 22:18N 42°59' E 009°06'1212.3
2014-Aug-13 21:21N 43°07' E 009°18'1111.5
2014-Aug-13 20:23N 43°11' E 009°32'911.4
2014-Aug-13 19:33N 43°15' E 009°44'1211.9
2014-Aug-13 18:33N 43°20' E 009°59'1312.8
2014-Aug-13 17:33N 43°29' E 010°11'7 6.5
2014-Aug-13 16:32N 43°33' E 010°18'0 0.0
2014-Aug-13 15:31N 43°33' E 010°18'0 0.0
2014-Aug-13 14:31N 43°33' E 010°18'0 0.0
2014-Aug-13 13:31N 43°33' E 010°18'0 0.0
2014-Aug-13 12:27N 43°33' E 010°18'0 0.0
2014-Aug-13 11:33N 43°33' E 010°18'0 0.0
2014-Aug-13 10:32N 43°33' E 010°18'0 0.0
2014-Aug-13 09:32N 43°33' E 010°18'0 0.0
2014-Aug-13 08:31N 43°33' E 010°18'0 0.0
2014-Aug-13 07:31N 43°33' E 010°18'0 0.0
2014-Aug-13 06:34N 43°33' E 010°18'0 0.0
2014-Aug-13 05:33N 43°33' E 010°18'5 5.2
2014-Aug-13 04:33N 43°29' E 010°13'1312.7
2014-Aug-13 03:33N 43°17' E 010°09'1412.6
2014-Aug-13 02:29N 43°03' E 010°06'3311.1
2014-Aug-12 23:30N 42°32' E 010°22'1312.8
2014-Aug-12 22:31N 42°24' E 010°35'158 6.1
2014-Aug-11 20:33N 40°52' E 013°27'1414.5
2014-Aug-11 19:33N 40°44' E 013°42'1413.9
2014-Aug-11 18:33N 40°39' E 013°59'1413.9
2014-Aug-11 17:33N 40°47' E 014°14'4 3.6
2014-Aug-11 16:33N 40°50' E 014°16'0 0.0
2014-Aug-11 15:32N 40°50' E 014°16'0 0.0
2014-Aug-11 14:29N 40°50' E 014°16'0 0.0
2014-Aug-11 13:32N 40°50' E 014°16'0 0.0
2014-Aug-11 12:31N 40°50' E 014°16'0 0.0
2014-Aug-11 11:31N 40°50' E 014°16'0 0.0
2014-Aug-11 10:33N 40°50' E 014°16'0 0.0
2014-Aug-11 08:32N 40°50' E 014°16'0 0.0
2014-Aug-11 07:33N 40°50' E 014°16'0 0.1
2014-Aug-11 05:16N 40°50' E 014°16'18 9.5
2014-Aug-11 03:21N 40°33' E 014°08'1012.2
2014-Aug-11 02:33N 40°24' E 014°05'1613.6
2014-Aug-11 01:23N 40°08' E 014°00'1113.5
2014-Aug-11 00:33N 39°57' E 013°57'1413.4
2014-Aug-10 23:31N 39°44' E 013°53'1313.5
2014-Aug-10 22:33N 39°31' E 013°50'1313.5
2014-Aug-10 21:33N 39°18' E 013°46'1313.1
2014-Aug-10 20:33N 39°05' E 013°42'1313.1
2014-Aug-10 19:33N 38°52' E 013°38'1413.5
2014-Aug-10 18:33N 38°39' E 013°34'1413.7
2014-Aug-10 17:33N 38°26' E 013°31'1313.3
2014-Aug-10 16:33N 38°13' E 013°27'6 6.2
2014-Aug-10 15:32N 38°08' E 013°22'0 0.0
2014-Aug-10 14:32N 38°08' E 013°22'0 0.0
2014-Aug-10 13:31N 38°08' E 013°22'0 0.0
2014-Aug-10 12:31N 38°08' E 013°22'0 0.0
2014-Aug-10 11:33N 38°08' E 013°22'0 0.0
2014-Aug-10 10:33N 38°08' E 013°22'0 0.0
2014-Aug-10 09:33N 38°08' E 013°22'0 0.0
2014-Aug-10 08:32N 38°08' E 013°22'0 0.0
2014-Aug-10 07:32N 38°08' E 013°22'0 0.0
2014-Aug-10 06:31N 38°08' E 013°22'4 3.7
2014-Aug-10 05:33N 38°11' E 013°24'1110.6
2014-Aug-10 04:34N 38°18' E 013°14'  

Dump ship's entire track history